createdAt,value
2023-01-29T00:00:10.068Z,104.47
2023-01-29T00:05:25.938Z,90.53
2023-01-29T00:07:53.577Z,100.82
2023-01-29T00:10:20.207Z,95.65
2023-01-29T00:12:46.787Z,93.78
2023-01-29T00:15:13.398Z,92.50
2023-01-29T00:17:40.053Z,96.85
2023-01-29T00:20:07.126Z,106.25
2023-01-29T00:22:33.742Z,88.05
2023-01-29T00:25:00.363Z,92.75
2023-01-29T00:27:26.996Z,91.70
2023-01-29T00:30:11.951Z,86.82
2023-01-29T00:32:42.028Z,99.38
2023-01-29T00:35:09.490Z,93.78
2023-01-29T00:37:36.298Z,103.60
2023-01-29T00:40:04.575Z,103.68
2023-01-29T00:42:50.457Z,105.55
2023-01-29T00:45:17.157Z,96.05
2023-01-29T00:47:45.317Z,99.85
2023-01-29T00:50:12.977Z,115.30
2023-01-29T00:52:42.867Z,95.93
2023-01-29T00:55:11.181Z,89.45
2023-01-29T00:57:38.646Z,94.70
2023-01-29T01:00:09.759Z,103.50
2023-01-29T01:02:54.838Z,103.72
2023-01-29T01:05:21.599Z,97.13
2023-01-29T01:07:52.670Z,103.45
2023-01-29T01:10:32.894Z,101.20
2023-01-29T01:13:04.072Z,91.63
2023-01-29T01:15:35.377Z,88.05
2023-01-29T01:18:04.724Z,103.03
2023-01-29T01:20:35.604Z,113.15
2023-01-29T01:23:02.913Z,105.68
2023-01-29T01:25:29.591Z,96.55
2023-01-29T01:30:27.192Z,111.65
2023-01-29T01:32:54.789Z,95.95
2023-01-29T01:35:23.991Z,109.70
2023-01-29T01:37:50.810Z,88.30
2023-01-29T01:40:21.181Z,96.28
2023-01-29T01:42:53.521Z,94.63
2023-01-29T01:45:30.351Z,84.95
2023-01-29T01:48:19.984Z,90.68
2023-01-29T01:50:58.695Z,94.38
2023-01-29T01:53:44.852Z,90.35
2023-01-29T01:56:18.549Z,80.88
2023-01-29T01:58:54.915Z,88.55
2023-01-29T02:01:27.850Z,98.95
2023-01-29T02:04:23.210Z,84.93
2023-01-29T02:07:10.234Z,93.47
2023-01-29T02:09:46.311Z,90.22
2023-01-29T02:12:16.890Z,94.22
2023-01-29T02:14:44.071Z,89.95
2023-01-29T02:17:15.446Z,82.95
2023-01-29T02:20:08.380Z,89.35
2023-01-29T02:22:59.181Z,105.75
2023-01-29T02:25:57.610Z,85.78
2023-01-29T02:28:42.351Z,98.38
2023-01-29T02:32:07.930Z,82.80
2023-01-29T02:34:57.706Z,80.50
2023-01-29T02:37:38.128Z,95.32
2023-01-29T02:40:27.297Z,100.57
2023-01-29T02:43:09.372Z,99.20
2023-01-29T02:45:49.109Z,110.75
2023-01-29T02:48:23.891Z,99.95
2023-01-29T02:51:07.716Z,93.25
2023-01-29T02:53:41.274Z,98.22
2023-01-29T02:56:23.950Z,93.88
2023-01-29T02:59:15.181Z,103.55
2023-01-29T03:02:10.648Z,94.45
2023-01-29T03:04:46.477Z,83.15
2023-01-29T03:07:41.241Z,77.60
2023-01-29T03:10:27.927Z,83.78
2023-01-29T03:13:06.272Z,73.97
2023-01-29T03:15:48.324Z,68.72
2023-01-29T03:18:30.948Z,85.90
2023-01-29T03:21:32.121Z,81.70
2023-01-29T03:24:19.045Z,80.63
2023-01-29T03:27:05.497Z,72.13
2023-01-29T03:29:56.997Z,69.13
2023-01-29T03:32:30.561Z,77.60
2023-01-29T03:35:05.119Z,81.50
2023-01-29T03:37:46.175Z,73.22
2023-01-29T03:40:14.018Z,76.95
2023-01-29T03:43:04.667Z,72.85
2023-01-29T03:45:42.741Z,75.47
2023-01-29T03:48:40.009Z,84.80
2023-01-29T03:51:53.926Z,80.10
2023-01-29T03:54:29.688Z,77.40
2023-01-29T03:57:20.104Z,78.45
2023-01-29T04:00:02.766Z,77.57
2023-01-29T04:03:02.059Z,73.68
2023-01-29T04:05:40.919Z,74.65
2023-01-29T04:08:25.745Z,77.55
2023-01-29T04:10:56.504Z,78.25
2023-01-29T04:13:24.929Z,82.47
2023-01-29T04:15:57.995Z,81.70
2023-01-29T04:18:47.653Z,80.75
2023-01-29T04:21:16.343Z,76.10
2023-01-29T04:23:43.897Z,71.53
2023-01-29T04:26:24.797Z,79.63
2023-01-29T04:29:11.066Z,69.45
2023-01-29T04:32:18.340Z,69.55
2023-01-29T04:37:50.800Z,68.13
2023-01-29T04:40:47.464Z,66.80
2023-01-29T04:43:43.306Z,71.65
2023-01-29T04:46:22.090Z,78.78
2023-01-29T04:49:12.796Z,77.60
2023-01-29T04:52:23.045Z,65.68
2023-01-29T04:55:43.553Z,65.07
2023-01-29T04:58:36.853Z,75.85
2023-01-29T05:01:09.054Z,70.75
2023-01-29T05:03:38.126Z,64.47
2023-01-29T05:06:06.466Z,69.95
2023-01-29T05:08:33.927Z,70.07
2023-01-29T05:11:00.838Z,77.25
2023-01-29T05:13:31.900Z,71.53
2023-01-29T05:16:10.072Z,68.10
2023-01-29T05:18:36.803Z,73.10
2023-01-29T05:21:08.489Z,72.32
2023-01-29T05:23:35.618Z,65.32
2023-01-29T05:26:02.835Z,76.70
2023-01-29T05:28:29.564Z,68.70
2023-01-29T05:30:57.312Z,61.60
2023-01-29T05:33:27.812Z,68.65
2023-01-29T05:35:55.787Z,64.55
2023-01-29T05:38:23.044Z,74.05
2023-01-29T05:40:50.158Z,71.20
2023-01-29T05:43:19.229Z,68.65
2023-01-29T05:45:56.020Z,64.95
2023-01-29T05:48:23.748Z,63.75
2023-01-29T05:50:50.988Z,61.65
2023-01-29T05:53:17.753Z,65.25
2023-01-29T05:55:48.383Z,68.93
2023-01-29T05:58:15.253Z,75.07
2023-01-29T06:00:42.571Z,71.50
2023-01-29T06:03:09.416Z,71.53
2023-01-29T06:05:39.800Z,71.22
2023-01-29T06:08:07.954Z,70.82
2023-01-29T06:10:35.234Z,68.63
2023-01-29T06:13:01.953Z,66.53
2023-01-29T06:15:28.663Z,67.50
2023-01-29T06:17:56.527Z,66.22
2023-01-29T06:20:24.283Z,76.57
2023-01-29T06:22:51.015Z,67.82
2023-01-29T06:25:17.801Z,70.55
2023-01-29T06:27:44.403Z,81.32
2023-01-29T06:30:11.883Z,72.45
2023-01-29T06:32:38.563Z,80.55
2023-01-29T06:35:05.971Z,73.93
2023-01-29T06:37:32.675Z,76.60
2023-01-29T06:39:59.270Z,61.78
2023-01-29T06:42:27.865Z,66.25
2023-01-29T06:44:57.955Z,74.28
2023-01-29T06:47:24.837Z,69.10
2023-01-29T06:49:52.090Z,74.15
2023-01-29T06:52:19.110Z,67.90
2023-01-29T06:54:45.743Z,70.50
2023-01-29T06:57:12.397Z,74.00
2023-01-29T06:59:39.021Z,77.07
2023-01-29T07:02:05.740Z,69.10
2023-01-29T07:04:32.377Z,71.55
2023-01-29T07:07:02.053Z,67.28
2023-01-29T07:09:28.667Z,69.95
2023-01-29T07:11:55.255Z,65.22
2023-01-29T07:14:21.882Z,76.95
2023-01-29T07:16:48.463Z,68.78
2023-01-29T07:19:15.346Z,76.97
2023-01-29T07:21:41.966Z,67.88
2023-01-29T07:24:09.031Z,71.85
2023-01-29T07:26:35.688Z,72.60
2023-01-29T07:29:02.327Z,84.53
2023-01-29T07:31:29.018Z,76.35
2023-01-29T07:33:55.947Z,74.65
2023-01-29T07:36:24.000Z,72.05
2023-01-29T07:38:51.410Z,77.07
2023-01-29T07:41:18.672Z,66.18
2023-01-29T07:43:46.512Z,71.65
2023-01-29T07:46:13.451Z,75.95
2023-01-29T07:48:40.169Z,74.32
2023-01-29T07:51:07.134Z,72.20
2023-01-29T07:53:33.866Z,73.53
2023-01-29T07:56:00.545Z,69.97
2023-01-29T07:58:27.140Z,69.40
2023-01-29T08:00:53.772Z,74.30
2023-01-29T08:03:20.792Z,74.18
2023-01-29T08:05:48.220Z,80.22
2023-01-29T08:08:15.274Z,72.30
2023-01-29T08:10:42.464Z,68.13
2023-01-29T08:13:09.812Z,68.78
2023-01-29T08:18:23.493Z,71.78
2023-01-29T08:20:50.108Z,69.28
2023-01-29T08:23:16.886Z,68.30
2023-01-29T08:25:43.874Z,78.18
2023-01-29T08:28:12.187Z,69.15
2023-01-29T08:30:38.947Z,71.53
2023-01-29T08:33:05.607Z,72.45
2023-01-29T08:35:32.232Z,72.78
2023-01-29T08:38:02.008Z,69.72
2023-01-29T08:40:31.937Z,77.38
2023-01-29T08:43:02.121Z,75.25
2023-01-29T08:45:31.144Z,78.47
2023-01-29T08:47:57.774Z,83.03
2023-01-29T08:50:24.839Z,69.88
2023-01-29T08:52:51.576Z,87.35
2023-01-29T08:55:18.613Z,74.63
2023-01-29T08:57:45.389Z,68.53
2023-01-29T09:00:12.837Z,70.50
2023-01-29T09:02:39.534Z,82.43
2023-01-29T09:05:07.243Z,77.28
2023-01-29T09:07:34.247Z,72.70
2023-01-29T09:10:01.380Z,76.53
2023-01-29T09:12:28.099Z,79.03
2023-01-29T09:14:54.716Z,88.65
2023-01-29T09:17:21.446Z,74.28
2023-01-29T09:19:48.154Z,77.78
2023-01-29T09:22:15.010Z,84.20
2023-01-29T09:24:41.621Z,73.93
2023-01-29T09:27:09.936Z,76.82
2023-01-29T09:29:37.071Z,70.97
2023-01-29T09:32:05.185Z,81.50
2023-01-29T09:34:33.974Z,79.03
2023-01-29T09:37:00.771Z,74.72
2023-01-29T09:39:27.392Z,75.05
2023-01-29T09:42:07.693Z,69.72
2023-01-29T09:44:53.056Z,71.80
2023-01-29T09:47:22.952Z,72.72
2023-01-29T09:49:56.800Z,76.05
2023-01-29T09:52:27.766Z,68.53
2023-01-29T09:55:04.304Z,66.47
2023-01-29T09:58:14.263Z,70.85
2023-01-29T10:00:47.717Z,65.38
2023-01-29T10:03:23.608Z,66.13
2023-01-29T10:09:02.232Z,72.60
2023-01-29T10:12:10.393Z,67.57
2023-01-29T10:15:13.604Z,62.80
2023-01-29T10:18:09.507Z,60.17
2023-01-29T10:21:04.607Z,57.28
2023-01-29T10:23:56.422Z,60.80
2023-01-29T10:26:27.423Z,57.30
2023-01-29T10:28:57.380Z,60.40
2023-01-29T10:31:34.310Z,60.85
2023-01-29T10:34:13.660Z,64.80
2023-01-29T10:36:49.591Z,64.97
2023-01-29T10:42:05.664Z,61.67
2023-01-29T10:45:15.823Z,57.60
2023-01-29T10:48:24.913Z,62.38
2023-01-29T10:51:20.460Z,53.78
2023-01-29T10:54:18.025Z,60.88
2023-01-29T10:57:10.900Z,58.67
2023-01-29T11:00:10.376Z,57.90
2023-01-29T11:02:36.961Z,52.83
2023-01-29T11:05:03.736Z,58.95
2023-01-29T11:07:32.025Z,57.70
2023-01-29T11:10:13.886Z,58.72
2023-01-29T11:12:41.665Z,54.97
2023-01-29T11:15:34.842Z,55.78
2023-01-29T11:18:13.159Z,57.25
2023-01-29T11:20:42.448Z,59.58
2023-01-29T11:23:33.727Z,58.80
2023-01-29T11:26:01.295Z,54.85
2023-01-29T11:28:43.784Z,56.72
2023-01-29T11:31:25.972Z,54.00
2023-01-29T11:34:20.696Z,53.33
2023-01-29T11:36:58.077Z,56.65
2023-01-29T11:39:27.399Z,55.55
2023-01-29T11:41:53.991Z,56.17
2023-01-29T11:44:31.329Z,54.95
2023-01-29T11:47:11.584Z,55.58
2023-01-29T11:49:41.157Z,56.83
2023-01-29T11:52:11.093Z,50.55
2023-01-29T11:54:58.037Z,56.08
2023-01-29T11:57:32.291Z,53.65
2023-01-29T12:00:06.553Z,52.50
2023-01-29T12:02:54.177Z,55.95
2023-01-29T12:07:59.954Z,52.47
2023-01-29T12:10:36.718Z,52.97
2023-01-29T12:13:09.163Z,54.53
2023-01-29T12:15:40.841Z,58.65
2023-01-29T12:18:37.122Z,56.75
2023-01-29T12:21:16.046Z,52.22
2023-01-29T12:23:51.721Z,59.63
2023-01-29T12:26:31.105Z,53.63
2023-01-29T12:29:31.797Z,55.78
2023-01-29T12:32:11.974Z,53.60
2023-01-29T12:34:52.080Z,60.53
2023-01-29T12:37:48.541Z,52.03
2023-01-29T12:40:18.329Z,62.92
2023-01-29T12:42:50.501Z,54.92
2023-01-29T12:45:24.120Z,56.08
2023-01-29T12:48:08.333Z,55.45
2023-01-29T12:50:37.590Z,52.95
2023-01-29T12:53:30.148Z,52.88
2023-01-29T12:56:16.945Z,56.58
2023-01-29T12:58:49.658Z,56.38
2023-01-29T13:01:43.059Z,52.15
2023-01-29T13:04:30.845Z,50.22
2023-01-29T13:07:12.961Z,51.05
2023-01-29T13:09:46.263Z,62.08
2023-01-29T13:12:19.315Z,56.63
2023-01-29T13:14:59.231Z,55.53
2023-01-29T13:17:54.170Z,49.05
2023-01-29T13:20:34.000Z,55.20
2023-01-29T13:23:44.303Z,51.88
2023-01-29T13:26:13.826Z,47.88
2023-01-29T13:28:45.134Z,52.70
2023-01-29T13:31:26.944Z,55.70
2023-01-29T13:34:02.766Z,53.40
2023-01-29T13:36:31.120Z,58.50
2023-01-29T13:39:07.964Z,53.50
2023-01-29T13:41:39.201Z,51.95
2023-01-29T13:44:17.980Z,51.17
2023-01-29T13:46:53.654Z,52.13
2023-01-29T13:49:45.616Z,56.33
2023-01-29T13:53:08.272Z,52.53
2023-01-29T13:55:40.078Z,51.35
2023-01-29T13:58:15.719Z,50.88
2023-01-29T14:00:42.337Z,47.80
2023-01-29T14:03:11.589Z,52.20
2023-01-29T14:05:41.700Z,53.25
2023-01-29T14:08:15.004Z,45.25
2023-01-29T14:10:43.552Z,43.80
2023-01-29T14:13:19.257Z,49.67
2023-01-29T14:16:12.306Z,46.97
2023-01-29T14:19:06.045Z,49.90
2023-01-29T14:21:36.143Z,44.50
2023-01-29T14:24:33.577Z,45.65
2023-01-29T14:27:00.459Z,40.35
2023-01-29T14:29:38.116Z,45.42
2023-01-29T14:32:07.823Z,45.22
2023-01-29T14:34:56.377Z,43.70
2023-01-29T14:37:36.116Z,42.45
2023-01-29T14:40:11.943Z,42.65
2023-01-29T14:43:02.722Z,38.85
2023-01-29T14:45:41.836Z,41.85
2023-01-29T14:48:11.605Z,36.55
2023-01-29T14:50:49.002Z,47.92
2023-01-29T14:54:06.386Z,38.92
2023-01-29T14:56:53.199Z,38.70
2023-01-29T14:59:29.294Z,38.78
2023-01-29T15:02:00.784Z,43.80
2023-01-29T15:04:59.903Z,40.90
2023-01-29T15:07:53.031Z,38.63
2023-01-29T15:10:35.808Z,36.35
2023-01-29T15:13:45.203Z,35.13
2023-01-29T15:16:23.251Z,35.08
2023-01-29T15:18:54.962Z,33.85
2023-01-29T15:21:21.724Z,32.05
2023-01-29T15:24:05.812Z,32.20
2023-01-29T15:26:36.330Z,34.95
2023-01-29T15:29:04.632Z,32.83
2023-01-29T15:31:32.493Z,32.42
2023-01-29T15:34:04.821Z,37.03
2023-01-29T15:36:32.399Z,33.67
2023-01-29T15:39:22.656Z,32.42
2023-01-29T15:41:52.075Z,31.58
2023-01-29T15:44:23.066Z,32.97
2023-01-29T15:46:59.863Z,32.47
2023-01-29T15:49:39.614Z,35.80
2023-01-29T15:52:19.501Z,29.58
2023-01-29T15:54:47.568Z,33.75
2023-01-29T15:57:27.409Z,30.80
2023-01-29T15:59:57.871Z,31.83
2023-01-29T16:02:39.755Z,29.92
2023-01-29T16:05:30.478Z,31.02
2023-01-29T16:07:58.066Z,30.48
2023-01-29T16:10:30.000Z,29.77
2023-01-29T16:12:57.833Z,28.38
2023-01-29T16:15:36.369Z,31.30
2023-01-29T16:18:28.626Z,27.23
2023-01-29T16:20:58.676Z,36.92
2023-01-29T16:23:31.737Z,36.92
2023-01-29T16:26:07.613Z,31.38
2023-01-29T16:31:07.967Z,30.10
2023-01-29T16:33:42.415Z,38.38
2023-01-29T16:36:29.575Z,35.72
2023-01-29T16:39:14.592Z,35.45
2023-01-29T16:41:41.336Z,33.15
2023-01-29T16:44:17.149Z,34.45
2023-01-29T16:46:49.202Z,34.03
2023-01-29T16:49:55.461Z,34.35
2023-01-29T16:52:34.693Z,37.40
2023-01-29T16:55:12.337Z,37.47
2023-01-29T16:57:40.411Z,33.15
2023-01-29T17:00:18.333Z,41.13
2023-01-29T17:02:45.161Z,35.92
2023-01-29T17:05:22.832Z,34.75
2023-01-29T17:07:50.068Z,34.33
2023-01-29T17:10:20.264Z,36.25
2023-01-29T17:12:56.571Z,36.65
2023-01-29T17:15:52.816Z,35.55
2023-01-29T17:18:25.218Z,47.47
2023-01-29T17:20:55.140Z,38.60
2023-01-29T17:23:22.376Z,39.50
2023-01-29T17:25:49.130Z,40.95
2023-01-29T17:28:17.897Z,34.50
2023-01-29T17:30:53.457Z,40.60
2023-01-29T17:33:25.844Z,41.33
2023-01-29T17:35:52.763Z,40.25
2023-01-29T17:38:26.223Z,40.60
2023-01-29T17:41:04.427Z,38.33
2023-01-29T17:43:31.398Z,40.25
2023-01-29T17:45:58.262Z,37.22
2023-01-29T17:48:30.467Z,40.00
2023-01-29T17:51:10.593Z,41.05
2023-01-29T17:53:45.465Z,41.13
2023-01-29T17:56:30.268Z,45.50
2023-01-29T17:58:57.015Z,41.47
2023-01-29T18:01:23.865Z,40.25
2023-01-29T18:03:50.731Z,37.22
2023-01-29T18:06:27.555Z,39.90
2023-01-29T18:08:54.491Z,36.35
2023-01-29T18:11:21.299Z,46.35
2023-01-29T18:13:48.041Z,39.40
2023-01-29T18:16:14.931Z,37.83
2023-01-29T18:18:41.703Z,43.65
2023-01-29T18:21:08.407Z,41.03
2023-01-29T18:23:35.272Z,37.88
2023-01-29T18:26:02.104Z,40.55
2023-01-29T18:28:29.667Z,39.63
2023-01-29T18:30:56.414Z,38.00
2023-01-29T18:33:24.165Z,36.00
2023-01-29T18:35:50.810Z,36.30
2023-01-29T18:38:17.809Z,41.08
2023-01-29T18:40:44.612Z,37.45
2023-01-29T18:43:11.451Z,40.25
2023-01-29T18:45:38.249Z,44.05
2023-01-29T18:48:05.444Z,37.60
2023-01-29T18:50:32.545Z,41.17
2023-01-29T18:52:59.721Z,36.97
2023-01-29T18:55:26.697Z,40.58
2023-01-29T18:58:28.159Z,40.22
2023-01-29T19:00:41.488Z,46.03
2023-01-29T19:03:08.140Z,35.80
2023-01-29T19:05:34.917Z,37.15
2023-01-29T19:08:01.897Z,47.03
2023-01-29T19:10:28.734Z,39.58
2023-01-29T19:12:55.355Z,41.15
2023-01-29T19:15:22.855Z,40.20
2023-01-29T19:17:53.014Z,38.35
2023-01-29T19:20:20.241Z,39.53
2023-01-29T19:22:46.914Z,43.60
2023-01-29T19:25:13.706Z,33.47
2023-01-29T19:27:40.364Z,44.20
2023-01-29T19:30:08.744Z,36.50
2023-01-29T19:32:35.659Z,39.17
2023-01-29T19:35:02.343Z,40.50
2023-01-29T19:37:30.838Z,34.92
2023-01-29T19:39:57.566Z,34.60
2023-01-29T19:42:24.216Z,41.38
2023-01-29T19:44:52.096Z,37.03
2023-01-29T19:47:19.085Z,33.22
2023-01-29T19:49:45.838Z,37.53
2023-01-29T19:52:49.903Z,33.40
2023-01-29T19:55:18.300Z,35.97
2023-01-29T19:57:45.395Z,38.15
2023-01-29T20:00:17.273Z,35.00
2023-01-29T20:02:43.924Z,41.88
2023-01-29T20:05:12.639Z,39.63
2023-01-29T20:07:41.060Z,35.53
2023-01-29T20:10:11.266Z,38.85
2023-01-29T20:12:38.419Z,32.08
2023-01-29T20:15:07.151Z,43.75
2023-01-29T20:17:33.779Z,39.53
2023-01-29T20:20:00.460Z,33.35
2023-01-29T20:22:27.077Z,39.45
2023-01-29T20:24:54.238Z,36.28
2023-01-29T20:27:20.921Z,39.67
2023-01-29T20:29:47.624Z,36.80
2023-01-29T20:32:14.651Z,42.17
2023-01-29T20:34:41.620Z,35.13
2023-01-29T20:37:08.255Z,39.55
2023-01-29T20:39:34.930Z,40.75
2023-01-29T20:42:01.831Z,40.42
2023-01-29T20:44:28.501Z,34.72
2023-01-29T20:46:56.236Z,37.67
2023-01-29T20:49:22.841Z,35.20
2023-01-29T20:51:49.680Z,38.15
2023-01-29T20:54:16.539Z,38.58
2023-01-29T20:56:44.391Z,40.85
2023-01-29T20:59:12.310Z,33.15
2023-01-29T21:01:38.934Z,34.53
2023-01-29T21:04:05.837Z,32.50
2023-01-29T21:06:32.779Z,38.33
2023-01-29T21:08:59.579Z,34.22
2023-01-29T21:11:26.336Z,36.58
2023-01-29T21:13:57.514Z,40.70
2023-01-29T21:16:26.305Z,32.60
2023-01-29T21:18:59.443Z,36.58
2023-01-29T21:21:26.692Z,33.60
2023-01-29T21:23:53.989Z,34.22
2023-01-29T21:26:20.804Z,38.47
2023-01-29T21:28:47.578Z,37.35
2023-01-29T21:31:16.172Z,32.38
2023-01-29T21:33:43.585Z,32.30
2023-01-29T21:36:11.361Z,29.38
2023-01-29T21:38:38.998Z,33.80
2023-01-29T21:41:09.599Z,37.40
2023-01-29T21:43:37.327Z,36.10
2023-01-29T21:46:11.626Z,32.78
2023-01-29T21:48:39.857Z,32.10
2023-01-29T21:51:06.737Z,33.40
2023-01-29T21:53:34.282Z,30.48
2023-01-29T21:56:06.026Z,32.70
2023-01-29T21:58:32.904Z,36.60
2023-01-29T22:01:36.758Z,29.92
2023-01-29T22:03:47.481Z,32.65
2023-01-29T22:06:15.012Z,32.33
2023-01-29T22:08:41.703Z,34.40
2023-01-29T22:11:19.155Z,35.38
2023-01-29T22:13:45.852Z,36.47
2023-01-29T22:16:12.621Z,31.00
2023-01-29T22:18:39.254Z,34.90
2023-01-29T22:21:05.916Z,38.38
2023-01-29T22:23:32.891Z,35.58
2023-01-29T22:26:06.937Z,37.08
2023-01-29T22:28:33.625Z,34.92
2023-01-29T22:31:02.216Z,33.22
2023-01-29T22:33:28.994Z,31.08
2023-01-29T22:35:56.558Z,36.90
2023-01-29T22:38:23.964Z,35.97
2023-01-29T22:40:52.308Z,36.72
2023-01-29T22:43:19.676Z,34.22
2023-01-29T22:45:46.679Z,36.20
2023-01-29T22:48:13.828Z,31.23
2023-01-29T22:50:41.296Z,36.95
2023-01-29T22:53:08.828Z,43.08
2023-01-29T22:55:35.520Z,35.10
2023-01-29T22:58:02.102Z,39.38
2023-01-29T23:00:28.708Z,35.50
2023-01-29T23:02:55.330Z,36.75
2023-01-29T23:05:22.050Z,40.67
2023-01-29T23:07:48.715Z,43.40
2023-01-29T23:10:16.508Z,40.50
2023-01-29T23:12:43.410Z,36.88
2023-01-29T23:15:10.145Z,39.85
2023-01-29T23:17:36.880Z,36.28
2023-01-29T23:20:03.825Z,32.80
2023-01-29T23:22:30.486Z,32.13
2023-01-29T23:24:57.136Z,32.08
2023-01-29T23:27:23.801Z,36.85
2023-01-29T23:29:50.382Z,39.17
2023-01-29T23:32:20.037Z,34.10
2023-01-29T23:34:46.641Z,36.92
2023-01-29T23:37:13.430Z,36.38
2023-01-29T23:39:40.190Z,36.33
2023-01-29T23:42:06.867Z,42.70
2023-01-29T23:44:33.540Z,37.40
2023-01-29T23:47:00.240Z,37.47
2023-01-29T23:49:27.064Z,34.88
2023-01-29T23:51:53.709Z,36.35
2023-01-29T23:54:20.397Z,36.28
2023-01-29T23:56:47.200Z,38.13
2023-01-29T23:59:14.999Z,39.92
